Time;durP1;ratioP1;P1;durP2;ratioP2;P2;SDS_P1;SDS_P2;PMS_P1;PMS_P2;Temp;Humidity;BMP_temperature;BMP_pressure;BME280_temperature;BME280_humidity;BME280_pressure;Samples;Min_cycle;Max_cycle;Signal;HPM_P1;HPM_P2
2024/01/28 00:02:41;;;;;;;;;;;;;;;;;;;;;
2024/01/28 00:04:58;;;;;;;;;;;;;;;;;;;;;
2024/01/28 00:07:37;;;;;;;5.27;2.73;;;4.00;99.90;;;;;;4985387;23;20176;-93
2024/01/28 00:09:41;;;;;;;5.87;2.33;;;4.10;99.90;;;;;;4976315;23;20221;-93
2024/01/28 00:11:48;;;;;;;5.53;2.60;;;4.00;99.90;;;;;;4952570;23;20284;-94
2024/01/28 00:14:23;;;;;;;;;;;;;;;;;;;;;
2024/01/28 00:16:47;;;;;;;5.63;2.23;;;4.30;99.90;;;;;;4981934;23;20209;-94
2024/01/28 00:23:32;;;;;;;3.93;1.90;;;4.30;99.90;;;;;;4987520;23;20187;-95
2024/01/28 00:26:24;;;;;;;;;;;;;;;;;;;;;
2024/01/28 00:35:26;;;;;;;7.33;2.97;;;3.70;99.90;;;;;;4981268;23;20156;-96
2024/01/28 00:37:55;;;;;;;11.37;2.27;;;3.60;99.90;;;;;;4975588;23;20255;-95
2024/01/28 00:40:45;;;;;;;;;;;;;;;;;;;;;
2024/01/28 00:47:14;;;;;;;3.20;2.07;;;3.70;99.90;;;;;;4950250;23;20231;-95
2024/01/28 01:05:46;;;;;;;;;;;;;;;;;;;;;
2024/01/28 01:08:57;;;;;;;4.57;1.30;;;3.60;99.90;;;;;;4809969;24;20217;-95
2024/01/28 01:11:16;;;;;;;3.73;1.50;;;3.50;99.90;;;;;;4775168;24;20169;-95
2024/01/28 01:13:27;;;;;;;6.87;1.80;;;3.60;99.90;;;;;;4878486;24;20226;-96
2024/01/28 01:15:33;;;;;;;6.40;2.10;;;3.70;99.90;;;;;;4946249;23;20159;-95
2024/01/28 01:17:49;;;;;;;8.90;2.20;;;3.60;99.90;;;;;;4954955;24;20183;-96
2024/01/28 01:19:50;;;;;;;4.50;1.90;;;3.70;99.90;;;;;;4977347;23;20216;-95
2024/01/28 01:25:45;;;;;;;5.10;2.07;;;3.90;99.90;;;;;;5001670;23;20163;-94
2024/01/28 01:31:53;;;;;;;;;;;;;;;;;;;;;
2024/01/28 01:34:26;;;;;;;;;;;;;;;;;;;;;
2024/01/28 01:39:20;;;;;;;4.27;1.80;;;3.80;99.90;;;;;;5068187;23;20193;-96
2024/01/28 01:42:23;;;;;;;2.60;1.80;;;3.80;99.90;;;;;;5076995;23;20256;-95
2024/01/28 01:44:29;;;;;;;6.90;1.77;;;3.60;99.90;;;;;;5077403;23;20201;-95
2024/01/28 01:50:34;;;;;;;2.23;1.20;;;3.50;99.90;;;;;;5059058;23;20176;-96
2024/01/28 01:52:57;;;;;;;3.53;1.43;;;3.60;99.90;;;;;;5052285;23;20614;-95
2024/01/28 01:55:12;;;;;;;5.43;1.90;;;3.50;99.90;;;;;;5048604;23;20154;-96
2024/01/28 01:57:41;;;;;;;;;;;;;;;;;;;;;
2024/01/28 02:00:15;;;;;;;5.70;2.27;;;3.70;99.90;;;;;;5079101;23;20187;-95
2024/01/28 02:03:28;;;;;;;;;;;;;;;;;;;;;
2024/01/28 02:06:56;;;;;;;;;;;;;;;;;;;;;
2024/01/28 02:09:50;;;;;;;;;;;;;;;;;;;;;
2024/01/28 02:16:23;;;;;;;4.93;1.60;;;3.50;99.90;;;;;;5038336;23;20154;-95
2024/01/28 02:19:14;;;;;;;12.90;2.00;;;3.60;99.90;;;;;;5076787;23;20188;-95
2024/01/28 02:21:45;;;;;;;2.83;1.20;;;3.80;99.90;;;;;;5050752;23;20158;-94
2024/01/28 02:24:15;;;;;;;2.87;1.13;;;3.80;99.90;;;;;;5073042;23;20150;-95
2024/01/28 02:26:40;;;;;;;5.13;1.83;;;3.70;99.90;;;;;;5071664;23;20503;-96
2024/01/28 02:29:02;;;;;;;2.53;1.23;;;3.50;99.90;;;;;;5051198;23;20616;-95
2024/01/28 02:31:31;;;;;;;7.03;1.30;;;3.50;99.90;;;;;;5053431;23;20237;-95
2024/01/28 02:34:05;;;;;;;;;;;;;;;;;;;;;
2024/01/28 03:48:31;;;;;;;4.43;1.43;;;2.70;99.90;;;;;;5069895;23;20240;-95
2024/01/28 03:50:54;;;;;;;3.47;1.33;;;2.80;99.90;;;;;;5048378;23;20217;-94
2024/01/28 03:53:05;;;;;;;7.10;2.07;;;2.90;99.90;;;;;;5046638;23;20154;-95
2024/01/28 03:55:31;;;;;;;;;;;;;;;;;;;;;
2024/01/28 03:58:31;;;;;;;3.17;1.13;;;3.00;99.90;;;;;;5070976;23;20177;-94
2024/01/28 04:00:31;;;;;;;2.90;1.30;;;2.90;99.90;;;;;;5021087;23;20430;-94
2024/01/28 04:02:32;;;;;;;6.37;1.40;;;3.00;99.90;;;;;;5021375;23;20155;-94
2024/01/28 04:04:36;;;;;;;3.13;1.20;;;3.20;99.90;;;;;;5045186;23;20146;-95
2024/01/28 04:06:45;;;;;;;2.40;1.20;;;3.20;99.90;;;;;;4998857;23;20180;-95
2024/01/28 04:09:37;;;;;;;7.10;1.73;;;3.30;99.90;;;;;;5018448;23;20189;-96
2024/01/28 04:11:53;;;;;;;2.77;0.93;;;3.50;99.90;;;;;;4998569;23;20163;-95
2024/01/28 04:14:19;;;;;;;4.07;1.10;;;3.60;99.90;;;;;;5002124;23;20156;-95
2024/01/28 04:17:07;;;;;;;;;;;;;;;;;;;;;
2024/01/28 04:19:45;;;;;;;7.43;1.10;;;3.30;99.90;;;;;;5022841;23;20194;-95
2024/01/28 04:22:02;;;;;;;5.07;1.00;;;3.30;99.90;;;;;;5000146;23;20167;-95
2024/01/28 04:24:47;;;;;;;;;;;;;;;;;;;;;
2024/01/28 04:27:31;;;;;;;5.53;1.23;;;3.30;99.90;;;;;;5071516;23;20232;-95
2024/01/28 04:29:37;;;;;;;9.17;1.33;;;3.30;99.90;;;;;;5023825;23;20606;-94
2024/01/28 04:32:38;;;;;;;;;;;;;;;;;;;;;
2024/01/28 04:34:55;;;;;;;4.53;1.10;;;3.60;99.90;;;;;;5047598;23;20150;-95
2024/01/28 04:37:22;;;;;;;3.93;1.20;;;3.70;99.90;;;;;;4999472;23;20175;-94
2024/01/28 04:39:25;;;;;;;5.50;1.80;;;3.50;99.90;;;;;;5021439;23;20630;-94
2024/01/28 04:41:42;;;;;;;;;;;;;;;;;;;;;
2024/01/28 04:43:46;;;;;;;5.20;1.23;;;2.90;99.90;;;;;;5022119;23;20155;-94
2024/01/28 04:45:47;;;;;;;1.20;0.70;;;2.70;99.90;;;;;;5022989;23;20151;-95
2024/01/28 04:47:54;;;;;;;2.77;1.00;;;2.90;99.90;;;;;;4987805;23;20225;-95
2024/01/28 04:50:11;;;;;;;3.13;0.97;;;2.90;99.90;;;;;;5002159;23;20146;-94
2024/01/28 04:52:18;;;;;;;1.57;0.73;;;2.90;99.90;;;;;;5000114;23;20246;-95
2024/01/28 04:54:29;;;;;;;;;;;;;;;;;;;;;
2024/01/28 04:56:33;;;;;;;6.80;1.00;;;2.80;99.90;;;;;;4999482;23;20182;-95
2024/01/28 04:58:34;;;;;;;5.80;0.50;;;2.80;99.90;;;;;;4999606;23;20216;-95
2024/01/28 05:00:46;;;;;;;1.20;0.80;;;2.70;99.90;;;;;;4976548;23;20476;-95
2024/01/28 05:07:16;;;;;;;;;;;;;;;;;;;;;
2024/01/28 05:09:05;;;;;;;1.67;0.60;;;2.80;99.90;;;;;;4969810;23;20163;-95
2024/01/28 05:14:17;;;;;;;7.67;1.30;;;3.10;99.90;;;;;;5024929;23;20162;-95
2024/01/28 05:19:58;;;;;;;1.93;1.00;;;3.20;99.90;;;;;;4982294;23;20163;-95
2024/01/28 05:22:47;;;;;;;2.20;0.43;;;3.20;99.90;;;;;;4964936;23;20161;-95
2024/01/28 05:24:51;;;;;;;6.37;1.20;;;3.30;99.90;;;;;;4964912;23;20157;-94
2024/01/28 05:26:55;;;;;;;8.23;0.60;;;3.10;99.90;;;;;;5023653;23;20245;-96
2024/01/28 05:29:07;;;;;;;1.07;0.40;;;3.00;99.90;;;;;;5021499;23;20147;-95
2024/01/28 05:31:30;;;;;;;0.97;0.87;;;2.90;99.90;;;;;;4975610;23;20220;-95
2024/01/28 05:33:57;;;;;;;1.67;0.77;;;3.00;99.90;;;;;;4974956;23;20165;-95
2024/01/28 05:36:40;;;;;;;;;;;;;;;;;;;;;
2024/01/28 05:39:13;;;;;;;1.00;0.53;;;3.30;99.90;;;;;;5002032;23;20195;-95
2024/01/28 05:41:41;;;;;;;1.00;0.40;;;3.50;99.90;;;;;;4978145;23;20196;-94
2024/01/28 05:43:54;;;;;;;2.63;0.70;;;3.40;99.90;;;;;;4978666;23;20197;-94
2024/01/28 05:46:19;;;;;;;;;;;;;;;;;;;;;
2024/01/28 05:48:39;;;;;;;1.43;0.77;;;3.50;99.90;;;;;;5066916;23;20173;-94
2024/01/28 05:50:47;;;;;;;2.27;0.83;;;3.60;99.90;;;;;;5023848;23;20231;-95
2024/01/28 05:52:54;;;;;;;2.07;0.83;;;3.60;99.90;;;;;;4999626;23;20219;-94
2024/01/28 05:55:14;;;;;;;2.57;1.10;;;3.70;99.90;;;;;;5000261;23;20166;-95
2024/01/28 05:57:56;;;;;;;;;;;;;;;;;;;;;
2024/01/28 06:00:26;;;;;;;1.53;0.70;;;3.70;99.90;;;;;;5042164;23;20498;-95
2024/01/28 06:02:55;;;;;;;;;;;;;;;;;;;;;
2024/01/28 06:05:14;;;;;;;5.10;0.90;;;3.80;99.90;;;;;;5023581;23;20234;-95
2024/01/28 06:07:29;;;;;;;0.73;0.67;;;3.80;99.90;;;;;;5024524;23;20162;-94
2024/01/28 06:09:38;;;;;;;1.80;0.70;;;3.80;99.90;;;;;;5000945;23;20159;-95
2024/01/28 06:11:40;;;;;;;3.80;0.97;;;3.80;99.90;;;;;;4999910;23;20262;-94
2024/01/28 06:14:15;;;;;;;1.87;0.87;;;3.80;99.90;;;;;;5001021;23;20155;-94
2024/01/28 06:16:14;;;;;;;3.80;1.00;;;3.80;99.90;;;;;;5021303;23;20179;-95
2024/01/28 06:18:22;;;;;;;2.20;0.80;;;3.70;99.90;;;;;;5048518;23;20197;-95
2024/01/28 06:20:27;;;;;;;3.43;1.07;;;3.70;99.90;;;;;;5000023;23;20159;-94
2024/01/28 06:22:45;;;;;;;9.97;1.50;;;3.70;99.90;;;;;;5023240;23;20582;-94
2024/01/28 06:24:46;;;;;;;2.03;0.87;;;3.70;99.90;;;;;;5047763;23;20150;-95
2024/01/28 06:26:59;;;;;;;7.07;2.00;;;3.70;99.90;;;;;;5000673;23;20175;-95
2024/01/28 06:29:04;;;;;;;0.77;0.57;;;3.70;99.90;;;;;;5008589;23;20167;-95
2024/01/28 06:31:23;;;;;;;4.37;1.00;;;3.70;99.90;;;;;;5053026;23;20146;-95
2024/01/28 06:33:41;;;;;;;2.00;0.50;;;3.80;99.90;;;;;;4998737;23;20212;-95
2024/01/28 06:35:55;;;;;;;1.47;0.50;;;3.80;99.90;;;;;;5002749;23;20230;-94
2024/01/28 06:38:06;;;;;;;2.03;1.07;;;3.60;99.90;;;;;;5000263;23;20166;-95
2024/01/28 06:40:35;;;;;;;1.00;0.57;;;3.50;99.90;;;;;;5003638;23;20159;-95
2024/01/28 06:42:52;;;;;;;2.40;0.73;;;3.60;99.90;;;;;;5025744;23;20163;-94
2024/01/28 06:45:12;;;;;;;4.80;1.10;;;3.70;99.90;;;;;;5005134;23;20217;-94
2024/01/28 06:47:25;;;;;;;2.17;0.87;;;3.70;99.90;;;;;;5028813;23;20199;-96
2024/01/28 06:50:09;;;;;;;;;;;;;;;;;;;;;
2024/01/28 06:55:50;;;;;;;9.73;1.73;;;3.70;99.90;;;;;;4947132;24;20156;-96
2024/01/28 06:58:10;;;;;;;;;;;;;;;;;;;;;
2024/01/28 07:00:39;;;;;;;3.40;1.10;;;3.70;99.90;;;;;;5056289;23;20217;-95
2024/01/28 07:02:50;;;;;;;;;;;;;;;;;;;;;
2024/01/28 07:05:34;;;;;;;0.73;0.50;;;3.60;99.90;;;;;;5050146;23;20176;-94
2024/01/28 07:22:00;;;;;;;4.17;1.40;;;3.50;99.90;;;;;;4827004;24;20176;-94
2024/01/28 07:32:21;;;;;;;1.47;0.63;;;3.40;99.90;;;;;;4804252;24;20172;-94
2024/01/28 07:38:37;;;;;;;2.60;1.03;;;3.30;99.90;;;;;;4828230;24;20205;-94
2024/01/28 07:58:54;;;;;;;;;;;;;;;;;;;;;
2024/01/28 08:05:51;;;;;;;5.57;1.13;;;4.30;99.90;;;;;;4716192;25;20215;-95
2024/01/28 08:09:03;;;;;;;;;;;;;;;;;;;;;
2024/01/28 08:26:45;;;;;;;4.23;1.60;;;6.20;99.90;;;;;;5047724;23;20537;-94
2024/01/28 08:28:57;;;;;;;2.83;0.80;;;6.40;99.90;;;;;;5023867;23;20211;-94
2024/01/28 08:31:20;;;;;;;4.45;1.20;;;6.60;99.90;;;;;;4999334;23;20158;-94
2024/01/28 08:45:19;;;;;;;2.67;0.90;;;7.20;99.90;;;;;;4890994;24;20181;-94
2024/01/28 08:55:10;;;;;;;;;;;;;;;;;;;;;
2024/01/28 08:58:22;;;;;;;3.67;0.98;;;7.70;99.90;;;;;;4775723;24;20186;-96
2024/01/28 09:09:03;;;;;;;1.88;0.80;;;8.50;99.90;;;;;;4648021;25;20519;-94
2024/01/28 09:11:31;;;;;;;3.78;1.20;;;8.00;99.90;;;;;;4605783;25;20184;-94
2024/01/28 09:14:29;;;;;;;;;;;;;;;;;;;;;
2024/01/28 10:11:21;;;;;;;4.05;1.15;;;7.60;99.90;;;;;;5068470;23;20232;-94
2024/01/28 10:14:17;;;;;;;3.33;1.17;;;7.60;99.90;;;;;;5048068;23;20165;-96
2024/01/28 10:20:28;;;;;;;2.05;1.27;;;7.60;99.90;;;;;;4971659;23;20199;-96
2024/01/28 10:23:52;;;;;;;1.25;0.70;;;8.00;99.90;;;;;;4952723;24;20156;-94
2024/01/28 10:25:58;;;;;;;3.28;1.42;;;8.20;99.90;;;;;;4965228;23;20164;-95
2024/01/28 10:28:31;;;;;;;;;;;;;;;;;;;;;
2024/01/28 10:31:01;;;;;;;4.35;1.27;;;8.50;99.90;;;;;;5020762;23;20185;-96
2024/01/28 10:34:02;;;;;;;6.07;2.00;;;8.40;99.90;;;;;;5052831;23;20208;-96
2024/01/28 10:36:46;;;;;;;;;;;;;;;;;;;;;
2024/01/28 10:39:32;;;;;;;;;;;;;;;;;;;;;
2024/01/28 10:42:00;;;;;;;6.30;2.07;;;8.30;99.90;;;;;;5046624;23;20158;-96
2024/01/28 10:46:06;;;;;;;4.50;1.70;;;8.80;99.90;;;;;;4999124;23;20183;-89
2024/01/28 10:48:16;;;;;;;3.65;1.17;;;9.00;99.90;;;;;;5022324;23;20523;-89
2024/01/28 10:50:20;;;;;;;5.13;1.85;;;9.20;99.90;;;;;;4999375;23;20224;-89
2024/01/28 10:52:21;;;;;;;4.88;1.10;;;9.30;99.90;;;;;;4975168;23;20156;-89
2024/01/28 10:54:23;;;;;;;5.20;1.33;;;9.20;99.90;;;;;;4975171;23;20153;-90
2024/01/28 10:56:24;;;;;;;3.80;1.48;;;9.30;99.90;;;;;;4975927;23;20240;-89
2024/01/28 10:58:24;;;;;;;7.40;1.45;;;9.20;99.90;;;;;;4975579;23;20725;-89
2024/01/28 11:00:28;;;;;;;3.95;1.27;;;9.10;99.90;;;;;;4999099;23;20156;-89
2024/01/28 11:02:29;;;;;;;8.77;1.85;;;8.90;99.90;;;;;;5022302;23;20157;-89
2024/01/28 11:04:32;;;;;;;4.72;1.33;;;9.00;99.90;;;;;;4997874;23;20717;-89
2024/01/28 11:06:34;;;;;;;4.22;1.60;;;9.00;99.90;;;;;;4997694;23;20175;-89
2024/01/28 11:08:36;;;;;;;5.07;1.17;;;9.10;99.90;;;;;;4999260;23;20230;-89
2024/01/28 11:10:37;;;;;;;6.10;1.25;;;9.20;99.90;;;;;;4998441;23;20164;-89
2024/01/28 11:12:39;;;;;;;3.08;1.48;;;9.00;99.90;;;;;;4975003;23;20659;-91
2024/01/28 11:14:39;;;;;;;3.55;1.17;;;9.00;99.90;;;;;;4980987;23;20161;-89
2024/01/28 11:16:40;;;;;;;3.53;1.48;;;9.00;99.90;;;;;;5003156;23;20706;-89
2024/01/28 11:18:58;;;;;;;3.33;1.23;;;9.20;99.90;;;;;;4998146;23;20542;-96
2024/01/28 11:21:12;;;;;;;1.63;0.85;;;9.20;99.90;;;;;;4999030;23;20159;-89
2024/01/28 11:23:17;;;;;;;4.03;1.27;;;9.30;99.90;;;;;;4998972;23;20152;-89
2024/01/28 11:25:29;;;;;;;8.70;1.35;;;9.40;99.90;;;;;;4999071;23;20152;-89
2024/01/28 11:27:30;;;;;;;2.72;1.30;;;9.40;99.90;;;;;;4998501;23;20167;-89
2024/01/28 11:29:35;;;;;;;3.00;1.52;;;9.60;99.90;;;;;;4999076;23;20158;-96
2024/01/28 11:31:40;;;;;;;6.68;1.83;;;9.80;99.90;;;;;;4998331;23;20160;-90
2024/01/28 11:33:45;;;;;;;3.60;1.60;;;9.90;99.90;;;;;;4998475;23;20152;-89
2024/01/28 11:35:47;;;;;;;2.00;1.30;;;9.90;99.90;;;;;;4974375;23;20160;-89
2024/01/28 11:37:57;;;;;;;4.13;1.48;;;9.90;99.90;;;;;;4998038;23;20171;-89
2024/01/28 11:40:05;;;;;;;3.53;1.10;;;10.00;99.90;;;;;;4974705;23;20500;-89
2024/01/28 11:42:07;;;;;;;1.92;1.00;;;9.80;99.90;;;;;;4974601;23;20156;-89
2024/01/28 11:44:08;;;;;;;2.42;1.10;;;9.80;99.90;;;;;;4974206;23;20548;-89
2024/01/28 11:46:09;;;;;;;8.48;1.55;;;9.50;99.90;;;;;;4951224;24;20197;-89
2024/01/28 11:48:14;;;;;;;6.53;1.70;;;9.50;99.90;;;;;;4951410;23;20161;-91
2024/01/28 11:50:16;;;;;;;3.97;2.10;;;9.70;99.90;;;;;;4974483;23;20201;-89
2024/01/28 11:52:16;;;;;;;5.70;1.25;;;9.70;99.90;;;;;;4974349;23;20192;-89
2024/01/28 11:54:17;;;;;;;5.57;1.90;;;9.90;99.90;;;;;;4950793;24;20176;-89
2024/01/28 11:56:18;;;;;;;4.88;1.38;;;10.00;99.90;;;;;;4973962;23;20178;-89
2024/01/28 11:58:19;;;;;;;2.92;1.17;;;10.10;99.90;;;;;;4950692;24;20195;-89
2024/01/28 12:00:21;;;;;;;6.15;2.15;;;10.00;99.90;;;;;;4997840;23;20163;-89
2024/01/28 12:02:22;;;;;;;3.28;1.42;;;10.10;99.90;;;;;;4974041;23;20159;-89
2024/01/28 12:04:23;;;;;;;6.30;1.20;;;10.20;99.90;;;;;;4950677;24;20619;-90
2024/01/28 12:06:27;;;;;;;2.38;1.35;;;10.30;99.90;;;;;;4950686;24;20173;-89
2024/01/28 12:08:29;;;;;;;3.63;1.20;;;10.20;99.90;;;;;;4950965;24;20184;-89
2024/01/28 12:10:29;;;;;;;4.05;1.48;;;10.30;99.90;;;;;;4974793;23;20159;-89
2024/01/28 12:12:34;;;;;;;3.60;0.90;;;10.30;99.90;;;;;;4997960;23;20160;-89
2024/01/28 12:14:35;;;;;;;5.18;0.95;;;10.60;99.90;;;;;;4951013;24;20244;-89
2024/01/28 12:16:36;;;;;;;3.30;1.27;;;10.80;99.90;;;;;;4973760;23;20216;-89
2024/01/28 12:18:38;;;;;;;4.18;1.35;;;10.90;99.90;;;;;;4950780;24;20192;-89
2024/01/28 12:20:39;;;;;;;3.28;1.60;;;11.10;99.90;;;;;;4974146;23;20148;-89
2024/01/28 12:22:40;;;;;;;3.92;1.52;;;11.30;99.90;;;;;;4997987;23;20158;-89
2024/01/28 12:24:48;;;;;;;6.40;2.03;;;11.50;99.90;;;;;;4973872;23;20148;-89
2024/01/28 12:26:48;;;;;;;2.60;1.20;;;11.50;99.90;;;;;;4951528;23;20259;-89
2024/01/28 12:28:51;;;;;;;4.55;1.60;;;11.50;99.90;;;;;;4997253;23;20167;-89
2024/01/28 12:30:54;;;;;;;3.97;1.65;;;11.60;99.90;;;;;;4975416;23;20160;-89
2024/01/28 12:32:55;;;;;;;4.50;1.10;;;11.80;99.90;;;;;;4974072;23;20152;-90
2024/01/28 12:34:57;;;;;;;3.13;1.23;;;11.70;99.90;;;;;;4974600;23;20164;-93
2024/01/28 12:36:58;;;;;;;2.42;1.17;;;11.70;99.90;;;;;;4998153;23;20174;-89
2024/01/28 12:38:58;;;;;;;7.32;1.35;;;11.70;99.90;;;;;;4973800;23;20278;-89
2024/01/28 12:40:59;;;;;;;2.85;1.27;;;11.60;99.90;;;;;;4997522;23;20239;-90
2024/01/28 12:43:00;;;;;;;4.05;1.30;;;11.60;99.90;;;;;;4974459;23;20616;-95
2024/01/28 12:45:01;;;;;;;1.60;0.95;;;11.50;99.90;;;;;;4985587;23;20210;-89
2024/01/28 12:47:02;;;;;;;4.78;1.33;;;11.70;99.90;;;;;;4997194;23;20179;-89
2024/01/28 12:49:03;;;;;;;2.38;0.95;;;11.80;99.90;;;;;;4997252;23;20175;-89
2024/01/28 12:51:05;;;;;;;3.70;1.45;;;12.10;99.90;;;;;;4974072;23;20156;-89
2024/01/28 12:53:06;;;;;;;1.88;0.93;;;12.10;99.90;;;;;;4975094;23;20208;-89
2024/01/28 12:55:07;;;;;;;17.15;1.98;;;12.30;99.90;;;;;;4975203;23;20220;-89
2024/01/28 12:57:08;;;;;;;2.20;0.90;;;12.30;99.90;;;;;;4974714;23;20177;-89
2024/01/28 12:59:09;;;;;;;2.75;0.80;;;12.30;99.90;;;;;;4998362;23;20219;-89
2024/01/28 13:01:10;;;;;;;1.38;0.93;;;12.30;99.90;;;;;;4974162;23;20200;-89
2024/01/28 13:03:11;;;;;;;1.90;0.80;;;12.20;99.90;;;;;;4974673;23;20520;-89
2024/01/28 13:05:14;;;;;;;2.22;1.10;;;12.30;99.90;;;;;;4975877;23;20152;-91
2024/01/28 13:07:15;;;;;;;1.60;0.98;;;12.30;99.90;;;;;;5021509;23;20622;-89
2024/01/28 13:09:18;;;;;;;3.78;1.00;;;12.50;99.90;;;;;;4998739;23;20240;-89
2024/01/28 13:11:18;;;;;;;1.85;0.93;;;12.60;99.90;;;;;;4999003;23;20152;-89
2024/01/28 13:13:19;;;;;;;1.17;0.73;;;12.80;99.90;;;;;;4975453;23;20273;-89
2024/01/28 13:15:20;;;;;;;1.70;0.88;;;12.90;99.90;;;;;;4975686;23;20153;-90
2024/01/28 13:17:21;;;;;;;2.08;0.85;;;12.90;99.90;;;;;;4998680;23;20186;-94
2024/01/28 13:19:22;;;;;;;1.85;0.93;;;13.00;99.90;;;;;;4998469;23;20195;-89
2024/01/28 13:21:23;;;;;;;2.50;0.90;;;13.10;99.90;;;;;;4999364;23;20204;-89
2024/01/28 13:23:24;;;;;;;1.90;0.60;;;12.90;99.90;;;;;;4998973;23;20602;-89
2024/01/28 13:25:24;;;;;;;2.67;1.10;;;12.90;99.90;;;;;;4975925;23;20159;-89
2024/01/28 13:27:25;;;;;;;1.50;0.60;;;12.90;99.90;;;;;;4976410;23;20642;-89
2024/01/28 13:29:29;;;;;;;4.10;1.05;;;13.10;99.90;;;;;;4999003;23;20242;-89
2024/01/28 13:31:30;;;;;;;1.27;0.75;;;13.20;99.90;;;;;;4999364;23;20159;-89
2024/01/28 13:33:31;;;;;;;2.45;0.80;;;13.20;99.90;;;;;;4999151;23;20164;-89
2024/01/28 13:35:33;;;;;;;3.35;0.68;;;13.30;99.90;;;;;;4975546;23;20152;-89
2024/01/28 13:37:34;;;;;;;1.65;0.80;;;13.50;99.90;;;;;;4975770;23;20180;-89
2024/01/28 13:39:34;;;;;;;3.05;0.95;;;13.40;99.90;;;;;;4975101;23;20251;-89
2024/01/28 13:41:35;;;;;;;4.63;0.90;;;13.30;99.90;;;;;;4978021;23;20185;-89
2024/01/28 13:43:36;;;;;;;4.32;1.23;;;13.40;99.90;;;;;;4980628;23;20152;-88
2024/01/28 13:45:37;;;;;;;1.33;0.60;;;13.30;99.90;;;;;;4980482;23;20156;-89
2024/01/28 13:47:40;;;;;;;2.38;0.90;;;12.90;99.90;;;;;;4974865;23;20172;-89
2024/01/28 13:49:41;;;;;;;3.70;1.05;;;13.10;99.90;;;;;;4974982;23;20156;-95
2024/01/28 13:51:42;;;;;;;10.00;1.10;;;13.10;99.90;;;;;;4974845;23;20163;-89
2024/01/28 13:53:43;;;;;;;2.33;1.02;;;13.20;99.90;;;;;;4998479;23;20152;-89
2024/01/28 13:55:44;;;;;;;2.13;0.85;;;13.30;99.90;;;;;;4998506;23;20163;-88
2024/01/28 13:57:45;;;;;;;1.75;0.90;;;13.60;99.90;;;;;;4974666;23;20176;-89
2024/01/28 13:59:45;;;;;;;2.40;0.77;;;13.40;99.90;;;;;;4998531;23;20195;-88
2024/01/28 14:01:46;;;;;;;4.45;1.30;;;13.30;99.90;;;;;;4974926;23;20216;-89
2024/01/28 14:03:47;;;;;;;3.63;1.05;;;13.40;99.90;;;;;;4975778;23;20595;-89
2024/01/28 14:05:49;;;;;;;2.58;1.13;;;13.30;99.90;;;;;;4998953;23;20183;-89
2024/01/28 14:07:50;;;;;;;2.58;0.93;;;13.40;99.90;;;;;;4998560;23;20179;-89
2024/01/28 14:09:50;;;;;;;3.55;1.30;;;13.40;99.90;;;;;;4999181;23;20171;-96
2024/01/28 14:11:51;;;;;;;1.55;0.80;;;13.40;99.90;;;;;;4977231;23;20156;-89
2024/01/28 14:13:52;;;;;;;5.20;1.02;;;13.60;99.90;;;;;;4976277;23;20175;-89
2024/01/28 14:15:53;;;;;;;2.58;1.20;;;13.40;99.90;;;;;;4975498;23;20156;-89
2024/01/28 14:17:54;;;;;;;2.05;0.75;;;13.50;99.90;;;;;;4998275;23;20163;-89
2024/01/28 14:19:54;;;;;;;1.88;0.95;;;13.70;99.90;;;;;;4998268;23;20576;-95
2024/01/28 14:21:56;;;;;;;2.03;0.73;;;13.80;99.90;;;;;;4998193;23;20191;-89
2024/01/28 14:23:57;;;;;;;3.50;0.90;;;13.50;99.90;;;;;;4974967;23;20157;-89
2024/01/28 14:25:58;;;;;;;1.80;0.85;;;13.30;99.90;;;;;;5022119;23;20203;-89
2024/01/28 14:27:59;;;;;;;2.38;1.05;;;12.90;99.90;;;;;;4974793;23;20182;-89
2024/01/28 14:29:59;;;;;;;1.83;0.80;;;12.80;99.90;;;;;;4974653;23;20248;-89
2024/01/28 14:32:00;;;;;;;1.40;1.00;;;12.70;99.90;;;;;;4998282;23;20152;-89
2024/01/28 14:34:01;;;;;;;0.75;0.60;;;12.60;99.90;;;;;;4997999;23;20179;-90
2024/01/28 14:36:03;;;;;;;2.33;0.90;;;12.60;99.90;;;;;;4997803;23;20207;-89
2024/01/28 14:38:04;;;;;;;2.95;0.73;;;12.50;99.90;;;;;;4974378;23;20183;-89
2024/01/28 14:40:06;;;;;;;2.35;0.77;;;12.50;99.90;;;;;;4997659;23;20180;-89
2024/01/28 14:42:08;;;;;;;1.48;0.68;;;12.50;99.90;;;;;;4997868;23;20152;-89
2024/01/28 14:44:09;;;;;;;2.53;1.02;;;12.40;99.90;;;;;;4998001;23;20243;-89
2024/01/28 14:46:11;;;;;;;0.68;0.65;;;12.30;99.90;;;;;;4997720;23;20227;-89
2024/01/28 14:48:12;;;;;;;2.15;0.70;;;12.40;99.90;;;;;;4974310;23;20163;-89
2024/01/28 14:50:14;;;;;;;5.28;0.77;;;12.40;99.90;;;;;;4974444;23;20167;-89
2024/01/28 14:52:14;;;;;;;2.45;0.80;;;12.50;99.90;;;;;;4975403;23;20608;-89
2024/01/28 14:54:17;;;;;;;2.65;1.13;;;12.60;99.90;;;;;;4998405;23;20159;-89
2024/01/28 14:56:18;;;;;;;1.95;0.73;;;12.50;99.90;;;;;;4998704;23;20176;-89
2024/01/28 14:58:19;;;;;;;2.10;1.17;;;12.50;99.90;;;;;;4998673;23;20270;-89
2024/01/28 15:00:20;;;;;;;2.03;1.17;;;12.50;99.90;;;;;;4975002;23;20177;-89
2024/01/28 15:02:21;;;;;;;3.35;1.13;;;12.40;99.90;;;;;;4997841;23;20219;-89
2024/01/28 15:04:22;;;;;;;1.17;0.65;;;12.40;99.90;;;;;;4974580;23;20156;-89
2024/01/28 15:06:23;;;;;;;5.00;1.25;;;12.30;99.90;;;;;;4974960;23;20172;-89
2024/01/28 15:08:23;;;;;;;5.72;1.02;;;12.20;99.90;;;;;;4998280;23;20227;-89
2024/01/28 15:10:25;;;;;;;3.58;0.90;;;12.00;99.90;;;;;;4974656;23;20156;-89
2024/01/28 15:12:26;;;;;;;1.23;0.70;;;12.00;99.90;;;;;;4976119;23;20238;-89
2024/01/28 15:14:27;;;;;;;2.53;0.93;;;12.10;99.90;;;;;;4997754;23;20159;-89
2024/01/28 15:16:28;;;;;;;3.17;1.15;;;12.10;99.90;;;;;;4975274;23;20207;-89
2024/01/28 15:18:29;;;;;;;2.10;1.13;;;12.10;99.90;;;;;;4997712;23;20274;-89
2024/01/28 15:20:30;;;;;;;2.85;1.40;;;12.10;99.90;;;;;;4997679;23;20156;-89
2024/01/28 15:22:31;;;;;;;3.10;1.50;;;12.10;99.90;;;;;;4997839;23;20674;-89
2024/01/28 15:24:32;;;;;;;10.70;1.63;;;12.00;99.90;;;;;;4998184;23;20175;-92
2024/01/28 15:26:32;;;;;;;5.78;1.77;;;12.00;99.90;;;;;;4997693;23;20198;-89
2024/01/28 15:28:33;;;;;;;2.75;1.30;;;11.80;99.90;;;;;;4974198;23;20152;-89
2024/01/28 15:30:34;;;;;;;4.60;1.17;;;11.70;99.90;;;;;;4974610;23;20164;-89
2024/01/28 15:32:35;;;;;;;4.35;1.05;;;11.70;99.90;;;;;;4973919;23;20156;-89
2024/01/28 15:34:36;;;;;;;2.53;1.17;;;11.60;99.90;;;;;;4998067;23;20160;-89
2024/01/28 15:36:36;;;;;;;2.10;1.20;;;11.60;99.90;;;;;;4974513;23;20172;-88
2024/01/28 15:38:38;;;;;;;2.63;1.40;;;11.50;99.90;;;;;;4998003;23;20195;-89
2024/01/28 15:40:39;;;;;;;1.52;0.73;;;11.40;99.90;;;;;;4974150;23;20201;-93
2024/01/28 15:42:40;;;;;;;1.30;0.75;;;11.40;99.90;;;;;;4973790;23;20611;-89
2024/01/28 15:44:41;;;;;;;1.92;1.00;;;11.30;99.90;;;;;;4973785;23;20178;-89
2024/01/28 15:46:42;;;;;;;3.72;1.42;;;11.30;99.90;;;;;;4997056;23;20535;-89
2024/01/28 15:48:42;;;;;;;2.15;1.05;;;11.20;99.90;;;;;;4974036;23;20186;-89
2024/01/28 15:50:43;;;;;;;5.55;1.08;;;11.00;99.90;;;;;;4973913;23;20610;-88
2024/01/28 15:52:44;;;;;;;2.22;1.15;;;10.90;99.90;;;;;;4973959;23;20159;-94
2024/01/28 15:54:45;;;;;;;2.28;0.82;;;10.80;99.90;;;;;;4973853;23;20164;-89
2024/01/28 15:56:46;;;;;;;5.38;1.23;;;10.80;99.90;;;;;;4997442;23;20203;-89
2024/01/28 15:58:47;;;;;;;2.55;1.25;;;10.70;99.90;;;;;;4974061;23;20192;-94
2024/01/28 16:00:47;;;;;;;3.50;1.50;;;10.70;99.90;;;;;;4974417;23;20652;-95
2024/01/28 16:02:48;;;;;;;2.28;1.05;;;10.90;99.90;;;;;;4974150;23;20239;-89
2024/01/28 16:04:51;;;;;;;2.45;1.05;;;10.80;99.90;;;;;;4974315;23;20148;-89
2024/01/28 16:06:53;;;;;;;5.32;1.52;;;10.60;99.90;;;;;;4997486;23;20269;-88
2024/01/28 16:08:53;;;;;;;1.95;0.90;;;10.60;99.90;;;;;;4997995;23;20160;-89
2024/01/28 16:10:54;;;;;;;3.63;1.25;;;10.40;99.90;;;;;;4974503;23;20614;-94
2024/01/28 16:12:55;;;;;;;6.30;1.58;;;10.40;99.90;;;;;;4997838;23;20159;-89
2024/01/28 16:14:56;;;;;;;2.13;1.05;;;10.40;99.90;;;;;;4997569;23;20155;-89
2024/01/28 16:16:57;;;;;;;2.00;1.10;;;10.20;99.90;;;;;;4974822;23;20176;-95
2024/01/28 16:18:58;;;;;;;3.45;1.50;;;10.30;99.90;;;;;;4977273;23;20187;-89
2024/01/28 16:21:00;;;;;;;2.28;0.73;;;10.40;99.90;;;;;;4977235;23;20163;-89
2024/01/28 16:23:01;;;;;;;3.80;1.15;;;10.10;99.90;;;;;;4973865;23;20163;-89
2024/01/28 16:25:02;;;;;;;5.07;1.38;;;10.00;99.90;;;;;;4973849;23;20160;-94
2024/01/28 16:27:03;;;;;;;3.03;1.25;;;9.90;99.90;;;;;;4973650;23;20228;-89
2024/01/28 16:29:04;;;;;;;2.85;1.35;;;9.90;99.90;;;;;;4974339;23;20195;-88
2024/01/28 16:31:05;;;;;;;3.90;1.13;;;9.90;99.90;;;;;;4997588;23;20159;-95
2024/01/28 16:33:06;;;;;;;4.13;1.33;;;9.80;99.90;;;;;;4973987;23;20152;-89
2024/01/28 16:35:07;;;;;;;4.47;1.50;;;9.80;99.90;;;;;;4997261;23;20159;-89
2024/01/28 16:37:08;;;;;;;1.48;0.82;;;9.70;99.90;;;;;;4997335;23;20179;-89
2024/01/28 16:39:09;;;;;;;3.20;1.05;;;9.70;99.90;;;;;;4997158;23;20246;-93
2024/01/28 16:41:10;;;;;;;1.98;1.15;;;9.70;99.90;;;;;;4973761;23;20541;-89
2024/01/28 16:43:11;;;;;;;2.63;1.50;;;9.60;99.90;;;;;;4998284;23;20168;-89
2024/01/28 16:45:14;;;;;;;2.20;1.10;;;9.70;99.90;;;;;;4975901;23;20232;-89
2024/01/28 16:47:15;;;;;;;1.98;1.35;;;9.70;99.90;;;;;;4975622;23;20187;-89
2024/01/28 16:49:15;;;;;;;5.07;0.90;;;9.70;99.90;;;;;;4998653;23;20151;-89
2024/01/28 16:51:16;;;;;;;2.15;0.85;;;9.70;99.90;;;;;;4998362;23;20156;-88
2024/01/28 16:53:17;;;;;;;5.20;1.27;;;9.60;99.90;;;;;;4979004;23;20576;-96